createdAt,value
2023-06-09T00:09:15.010Z,14.00
2023-06-09T00:11:43.287Z,14.00
2023-06-09T00:14:11.921Z,13.50
2023-06-09T00:16:40.220Z,14.00
2023-06-09T00:19:10.745Z,13.33
2023-06-09T00:21:39.085Z,13.75
2023-06-09T00:24:08.643Z,14.33
2023-06-09T00:26:37.084Z,14.25
2023-06-09T00:29:05.932Z,15.25
2023-06-09T00:31:35.034Z,14.50
2023-06-09T00:34:55.910Z,14.00
2023-06-09T00:37:24.268Z,14.00
2023-06-09T00:39:53.446Z,14.00
2023-06-09T00:46:56.153Z,13.00
2023-06-09T00:49:24.513Z,14.00
2023-06-09T00:51:53.280Z,14.50
2023-06-09T00:54:21.934Z,14.33
2023-06-09T00:56:51.611Z,14.33
2023-06-09T00:59:20.698Z,14.50
2023-06-09T01:01:49.407Z,14.00
2023-06-09T01:04:17.997Z,13.00
2023-06-09T01:07:01.784Z,14.25
2023-06-09T01:10:11.347Z,14.25
2023-06-09T01:12:43.642Z,14.25
2023-06-09T01:16:05.281Z,13.67
2023-06-09T01:18:34.478Z,14.00
2023-06-09T01:21:14.350Z,13.33
2023-06-09T01:28:21.558Z,12.67
2023-06-09T01:30:53.023Z,13.50
2023-06-09T01:38:30.597Z,13.75
2023-06-09T01:40:59.498Z,14.25
2023-06-09T01:43:27.988Z,13.25
2023-06-09T01:45:56.931Z,13.75
2023-06-09T01:48:51.332Z,14.33
2023-06-09T01:51:32.013Z,13.00
2023-06-09T01:54:09.628Z,15.00
2023-06-09T01:56:43.647Z,14.33
2023-06-09T01:59:39.280Z,13.33
2023-06-09T02:02:09.330Z,13.75
2023-06-09T02:04:38.237Z,12.75
2023-06-09T02:16:16.409Z,12.50
2023-06-09T02:18:46.335Z,13.00
2023-06-09T02:21:14.957Z,12.75
2023-06-09T02:23:43.288Z,11.33
2023-06-09T02:26:11.852Z,13.00
2023-06-09T02:28:40.436Z,13.75
2023-06-09T02:35:44.497Z,12.67
2023-06-09T02:38:13.105Z,12.00
2023-06-09T02:40:47.395Z,11.00
2023-06-09T02:43:15.798Z,11.75
2023-06-09T02:45:45.161Z,12.25
2023-06-09T02:48:16.639Z,13.00
2023-06-09T02:50:46.137Z,13.00
2023-06-09T02:53:16.258Z,13.25
2023-06-09T02:55:46.614Z,12.00
2023-06-09T02:58:20.954Z,12.67
2023-06-09T03:00:53.515Z,12.25
2023-06-09T03:03:22.243Z,13.33
2023-06-09T03:05:53.784Z,11.75
2023-06-09T03:08:23.156Z,11.50
2023-06-09T03:11:41.705Z,11.00
2023-06-09T03:14:13.425Z,13.00
2023-06-09T03:16:42.204Z,11.75
2023-06-09T03:19:10.696Z,12.75
2023-06-09T03:30:47.044Z,12.25
2023-06-09T03:33:16.486Z,12.67
2023-06-09T03:35:45.960Z,12.75
2023-06-09T03:38:14.355Z,11.33
2023-06-09T03:40:43.074Z,13.00
2023-06-09T03:47:43.775Z,12.50
2023-06-09T03:50:37.964Z,13.75
2023-06-09T03:53:06.968Z,13.33
2023-06-09T03:55:36.156Z,14.50
2023-06-09T03:58:07.516Z,14.75
2023-06-09T04:00:37.006Z,13.50
2023-06-09T04:03:05.943Z,15.00
2023-06-09T04:10:09.569Z,13.00
2023-06-09T04:13:29.028Z,13.50
2023-06-09T04:15:59.186Z,13.75
2023-06-09T04:18:27.952Z,14.25
2023-06-09T04:20:56.891Z,13.33
2023-06-09T04:23:28.960Z,14.00
2023-06-09T04:25:58.457Z,14.25
2023-06-09T04:33:03.589Z,14.75
2023-06-09T04:40:10.097Z,13.50
2023-06-09T04:42:41.092Z,13.67
2023-06-09T04:45:11.013Z,13.50
2023-06-09T04:52:13.128Z,13.75
2023-06-09T04:54:41.742Z,13.50
2023-06-09T04:57:11.276Z,13.50
2023-06-09T04:59:43.251Z,14.50
2023-06-09T05:02:13.268Z,13.25
2023-06-09T05:05:10.464Z,14.50
2023-06-09T05:07:42.798Z,14.00
2023-06-09T05:10:39.085Z,15.00
2023-06-09T05:18:01.358Z,15.75
2023-06-09T05:20:31.028Z,15.00
2023-06-09T05:22:59.887Z,14.25
2023-06-09T05:25:29.465Z,13.75
2023-06-09T05:27:58.191Z,13.75
2023-06-09T05:30:26.604Z,14.33
2023-06-09T05:32:56.296Z,14.67
2023-06-09T05:39:56.837Z,15.00
2023-06-09T05:42:25.321Z,13.50
2023-06-09T05:44:53.996Z,13.33
2023-06-09T05:47:22.355Z,12.00
2023-06-09T05:51:06.740Z,12.00
2023-06-09T05:53:35.498Z,13.25
2023-06-09T05:56:04.837Z,12.25
2023-06-09T05:58:35.296Z,13.25
2023-06-09T06:01:08.836Z,14.50
2023-06-09T06:03:38.215Z,11.50
2023-06-09T06:10:43.737Z,12.00
2023-06-09T06:14:01.950Z,12.00
2023-06-09T06:16:32.239Z,12.00
2023-06-09T06:19:00.786Z,11.25
2023-06-09T06:21:29.593Z,12.00
2023-06-09T06:23:58.267Z,13.33
2023-06-09T06:26:27.837Z,12.25
2023-06-09T06:28:56.175Z,13.00
2023-06-09T06:32:15.192Z,13.00
2023-06-09T06:34:43.577Z,11.50
2023-06-09T06:37:13.081Z,12.00
2023-06-09T06:39:41.583Z,12.75
2023-06-09T06:42:10.345Z,12.50
2023-06-09T06:44:56.356Z,12.00
2023-06-09T06:47:26.896Z,12.25
2023-06-09T06:49:55.274Z,10.50
2023-06-09T06:52:24.296Z,12.50
2023-06-09T06:54:53.456Z,13.25
2023-06-09T06:57:22.576Z,12.25
2023-06-09T06:59:52.084Z,11.50
2023-06-09T07:02:21.679Z,12.50
2023-06-09T07:04:50.589Z,11.25
2023-06-09T07:07:19.795Z,11.50
2023-06-09T07:09:48.142Z,12.75
2023-06-09T07:12:16.944Z,11.50
2023-06-09T07:14:45.302Z,10.75
2023-06-09T07:17:14.163Z,12.50
2023-06-09T07:19:42.556Z,13.25
2023-06-09T07:22:11.531Z,14.00
2023-06-09T07:24:40.458Z,12.67
2023-06-09T07:27:09.859Z,13.50
2023-06-09T07:29:38.231Z,13.00
2023-06-09T07:32:07.358Z,13.67
2023-06-09T07:34:36.603Z,14.00
2023-06-09T07:37:06.877Z,14.00
2023-06-09T07:39:36.074Z,14.00
2023-06-09T07:42:06.500Z,11.33
2023-06-09T07:44:35.432Z,11.00
2023-06-09T07:47:04.573Z,12.75
2023-06-09T07:49:32.976Z,12.75
2023-06-09T07:52:07.849Z,13.00
2023-06-09T07:54:44.739Z,12.00
2023-06-09T07:57:13.496Z,13.33
2023-06-09T07:59:42.578Z,14.00
2023-06-09T08:02:11.792Z,13.75
2023-06-09T08:04:42.868Z,15.00
2023-06-09T08:07:11.854Z,13.50
2023-06-09T08:09:40.149Z,13.75
2023-06-09T08:12:09.086Z,13.25
2023-06-09T08:14:37.534Z,14.00
2023-06-09T08:17:06.440Z,15.50
2023-06-09T08:19:34.827Z,13.00
2023-06-09T08:22:03.546Z,13.67
2023-06-09T08:24:31.812Z,13.00
2023-06-09T08:27:01.293Z,13.00
2023-06-09T08:29:29.605Z,15.50
2023-06-09T08:31:58.481Z,14.00
2023-06-09T08:34:26.909Z,14.50
2023-06-09T08:36:56.159Z,13.50
2023-06-09T08:39:24.497Z,13.50
2023-06-09T08:41:54.130Z,13.67
2023-06-09T08:44:22.607Z,14.25
2023-06-09T08:46:52.628Z,16.00
2023-06-09T08:49:22.492Z,13.00
2023-06-09T08:51:51.504Z,13.50
2023-06-09T08:54:19.902Z,15.50
2023-06-09T08:56:49.184Z,14.50
2023-06-09T08:59:18.051Z,13.33
2023-06-09T09:01:51.052Z,15.00
2023-06-09T09:04:19.599Z,15.00
2023-06-09T09:06:48.498Z,12.00
2023-06-09T09:09:17.603Z,15.50
2023-06-09T09:11:46.925Z,15.00
2023-06-09T09:14:15.625Z,12.67
2023-06-09T09:16:44.497Z,14.75
2023-06-09T09:19:12.848Z,15.25
2023-06-09T09:21:41.725Z,14.50
2023-06-09T09:24:13.828Z,15.25
2023-06-09T09:26:43.351Z,12.25
2023-06-09T09:29:11.795Z,13.50
2023-06-09T09:31:43.393Z,14.00
2023-06-09T09:34:15.716Z,12.75
2023-06-09T09:36:45.716Z,16.00
2023-06-09T09:39:16.388Z,14.25
2023-06-09T09:42:10.402Z,15.33
2023-06-09T09:44:52.421Z,14.50
2023-06-09T09:47:23.748Z,16.00
2023-06-09T09:50:02.275Z,15.75
2023-06-09T09:52:33.598Z,16.25
2023-06-09T09:55:09.009Z,15.00
2023-06-09T09:57:37.797Z,15.00
2023-06-09T10:00:14.040Z,15.50
2023-06-09T10:02:46.736Z,15.50
2023-06-09T10:05:17.687Z,16.00
2023-06-09T10:07:49.802Z,14.50
2023-06-09T10:10:18.937Z,14.50
2023-06-09T10:12:48.205Z,15.00
2023-06-09T10:15:16.771Z,13.50
2023-06-09T10:17:45.597Z,14.00
2023-06-09T10:22:45.163Z,13.75
2023-06-09T10:25:14.224Z,11.75
2023-06-09T10:27:43.987Z,12.00
2023-06-09T10:30:16.188Z,11.00
2023-06-09T10:38:33.191Z,14.50
2023-06-09T10:41:10.162Z,12.75
2023-06-09T10:44:19.829Z,13.00
2023-06-09T10:46:50.688Z,12.67
2023-06-09T10:49:28.036Z,12.67
2023-06-09T10:51:57.172Z,14.00
2023-06-09T10:54:31.208Z,13.75
2023-06-09T10:57:08.213Z,13.25
2023-06-09T10:59:36.433Z,11.50
2023-06-09T11:02:09.667Z,11.25
2023-06-09T11:04:46.449Z,12.25
2023-06-09T11:07:17.702Z,13.25
2023-06-09T11:09:48.695Z,14.00
2023-06-09T11:12:28.372Z,13.25
2023-06-09T11:15:00.618Z,13.50
2023-06-09T11:17:38.668Z,12.00
2023-06-09T11:20:13.630Z,13.50
2023-06-09T11:22:42.314Z,12.50
2023-06-09T11:25:31.474Z,12.25
2023-06-09T11:28:00.951Z,13.75
2023-06-09T11:30:31.485Z,14.50
2023-06-09T11:33:08.304Z,14.75
2023-06-09T11:35:44.944Z,14.33
2023-06-09T11:38:20.980Z,14.00
2023-06-09T11:40:53.429Z,14.50
2023-06-09T11:43:22.822Z,14.33
2023-06-09T11:45:51.480Z,14.25
2023-06-09T11:48:20.060Z,13.25
2023-06-09T11:50:48.730Z,13.50
2023-06-09T11:53:18.760Z,10.50
2023-06-09T11:55:48.157Z,11.00
2023-06-09T11:58:18.275Z,11.00
2023-06-09T12:00:48.806Z,10.00
2023-06-09T12:03:21.002Z,10.50
2023-06-09T12:05:53.215Z,9.75
2023-06-09T12:08:23.162Z,10.33
2023-06-09T12:10:51.400Z,10.00
2023-06-09T12:13:21.134Z,13.50
2023-06-09T12:15:53.371Z,11.50
2023-06-09T12:18:22.739Z,14.00
2023-06-09T12:20:54.857Z,13.25
2023-06-09T12:23:29.255Z,13.00
2023-06-09T12:25:57.611Z,12.50
2023-06-09T12:28:29.423Z,12.00
2023-06-09T12:31:08.026Z,14.00
2023-06-09T12:33:38.314Z,13.50
2023-06-09T12:36:11.886Z,14.67
2023-06-09T12:38:42.177Z,13.75
2023-06-09T12:41:12.822Z,12.00
2023-06-09T12:43:49.707Z,11.50
2023-06-09T12:46:42.513Z,13.00
2023-06-09T12:49:11.717Z,12.75
2023-06-09T12:51:43.405Z,13.50
2023-06-09T12:54:15.136Z,13.00
2023-06-09T12:56:43.334Z,12.75
2023-06-09T12:59:13.437Z,13.25
2023-06-09T13:01:41.724Z,13.25
2023-06-09T13:04:10.354Z,13.75
2023-06-09T13:06:39.139Z,15.33
2023-06-09T13:09:07.447Z,14.50
2023-06-09T13:11:36.012Z,13.00
2023-06-09T13:14:04.451Z,16.67
2023-06-09T13:16:34.074Z,15.67
2023-06-09T13:19:02.331Z,15.25
2023-06-09T13:24:03.247Z,13.00
2023-06-09T13:26:31.881Z,14.25
2023-06-09T13:29:00.061Z,15.00
2023-06-09T13:31:30.657Z,14.50
2023-06-09T13:33:58.941Z,14.50
2023-06-09T13:36:27.677Z,15.33
2023-06-09T13:38:55.833Z,16.50
2023-06-09T13:41:24.873Z,14.50
2023-06-09T13:43:53.170Z,14.25
2023-06-09T13:46:21.823Z,13.50
2023-06-09T13:48:50.415Z,14.50
2023-06-09T13:51:20.437Z,13.00
2023-06-09T13:53:48.596Z,13.25
2023-06-09T13:56:20.756Z,14.50
2023-06-09T13:58:49.038Z,13.50
2023-06-09T14:01:17.894Z,13.75
2023-06-09T14:03:46.246Z,15.67
2023-06-09T14:06:14.957Z,12.75
2023-06-09T14:08:43.238Z,13.00
2023-06-09T14:11:11.868Z,14.25
2023-06-09T14:13:40.302Z,13.25
2023-06-09T14:16:08.890Z,15.00
2023-06-09T14:18:37.806Z,16.00
2023-06-09T14:21:06.848Z,12.00
2023-06-09T14:23:35.007Z,14.75
2023-06-09T14:26:04.133Z,13.00
2023-06-09T14:28:32.538Z,13.75
2023-06-09T14:31:01.058Z,12.25
2023-06-09T14:33:29.321Z,12.50
2023-06-09T14:35:57.832Z,14.00
2023-06-09T14:38:26.155Z,12.75
2023-06-09T14:40:55.207Z,14.00
2023-06-09T14:43:23.653Z,12.75
2023-06-09T14:45:52.364Z,13.00
2023-06-09T14:48:20.719Z,13.00
2023-06-09T14:50:50.037Z,13.50
2023-06-09T14:53:18.640Z,13.75
2023-06-09T14:55:49.190Z,13.25
2023-06-09T14:58:19.352Z,12.50
2023-06-09T15:00:48.445Z,12.50
2023-06-09T15:03:18.302Z,12.00
2023-06-09T15:05:47.534Z,12.25
2023-06-09T15:08:15.883Z,12.50
2023-06-09T15:10:46.237Z,11.67
2023-06-09T15:13:18.184Z,10.50
2023-06-09T15:15:46.863Z,12.00
2023-06-09T15:18:15.815Z,10.67
2023-06-09T15:20:44.460Z,11.50
2023-06-09T15:23:13.445Z,10.50
2023-06-09T15:25:45.245Z,11.00
2023-06-09T15:28:17.254Z,12.75
2023-06-09T15:30:47.758Z,11.67
2023-06-09T15:33:20.728Z,11.00
2023-06-09T15:35:54.167Z,10.50
2023-06-09T15:38:31.193Z,10.00
2023-06-09T15:40:59.874Z,10.00
2023-06-09T15:43:35.260Z,11.25
2023-06-09T15:46:04.624Z,11.00
2023-06-09T15:48:34.810Z,11.00
2023-06-09T15:51:04.540Z,9.00
2023-06-09T15:53:32.710Z,11.75
2023-06-09T15:56:01.326Z,10.75
2023-06-09T15:58:29.579Z,10.50
2023-06-09T16:00:58.265Z,11.33
2023-06-09T16:03:29.707Z,11.00
2023-06-09T16:05:59.954Z,11.00
2023-06-09T16:08:28.291Z,10.00
2023-06-09T16:10:56.958Z,11.33
2023-06-09T16:13:25.192Z,10.00
2023-06-09T16:15:53.735Z,11.50
2023-06-09T16:18:23.303Z,11.67
2023-06-09T16:20:51.948Z,11.33
2023-06-09T16:23:20.268Z,13.75
2023-06-09T16:25:48.729Z,12.25
2023-06-09T16:28:17.045Z,11.00
2023-06-09T16:30:46.178Z,13.33
2023-06-09T16:33:14.384Z,11.33
2023-06-09T16:35:42.905Z,12.00
2023-06-09T16:38:11.153Z,11.25
2023-06-09T16:40:40.431Z,11.00
2023-06-09T16:43:08.800Z,12.00
2023-06-09T16:45:37.351Z,12.00
2023-06-09T16:48:05.841Z,12.00
2023-06-09T16:50:34.364Z,12.75
2023-06-09T16:53:03.185Z,14.50
2023-06-09T16:55:31.682Z,13.00
2023-06-09T16:57:59.910Z,12.25
2023-06-09T17:00:28.436Z,11.25
2023-06-09T17:02:56.886Z,10.75
2023-06-09T17:05:26.409Z,10.75
2023-06-09T17:07:54.742Z,10.33
2023-06-09T17:10:23.488Z,12.00
2023-06-09T17:12:51.798Z,10.50
2023-06-09T17:15:20.382Z,12.25
2023-06-09T17:17:48.837Z,9.75
2023-06-09T17:20:18.165Z,11.00
2023-06-09T17:22:46.599Z,10.75
2023-06-09T17:25:16.183Z,11.50
2023-06-09T17:27:46.633Z,12.50
2023-06-09T17:30:15.635Z,12.00
2023-06-09T17:32:45.421Z,11.33
2023-06-09T17:35:14.382Z,11.00
2023-06-09T17:37:43.273Z,12.00
2023-06-09T17:40:12.628Z,11.25
2023-06-09T17:42:41.455Z,10.75
2023-06-09T17:45:11.664Z,11.00
2023-06-09T17:47:40.521Z,11.00
2023-06-09T17:50:09.826Z,12.33
2023-06-09T17:52:38.059Z,11.00
2023-06-09T17:55:07.500Z,11.00
2023-06-09T17:57:36.165Z,10.00
2023-06-09T18:00:08.465Z,11.00
2023-06-09T18:02:39.629Z,10.33
2023-06-09T18:05:10.033Z,13.75
2023-06-09T18:07:38.429Z,12.50
2023-06-09T18:10:07.664Z,11.75
2023-06-09T18:12:36.336Z,13.25
2023-06-09T18:15:05.350Z,14.00
2023-06-09T18:17:33.729Z,16.00
2023-06-09T18:20:02.577Z,15.25
2023-06-09T18:22:31.896Z,13.67
2023-06-09T18:25:00.525Z,13.25
2023-06-09T18:27:28.749Z,13.75
2023-06-09T18:29:57.318Z,13.50
2023-06-09T18:32:25.523Z,15.00
2023-06-09T18:34:54.047Z,15.00
2023-06-09T18:37:22.304Z,16.50
2023-06-09T18:39:50.966Z,14.25
2023-06-09T18:42:19.488Z,15.75
2023-06-09T18:44:48.096Z,15.50
2023-06-09T18:47:16.587Z,17.50
2023-06-09T18:49:46.249Z,17.25
2023-06-09T18:52:15.519Z,17.00
2023-06-09T18:54:44.182Z,17.00
2023-06-09T18:57:12.716Z,17.25
2023-06-09T18:59:41.314Z,17.00
2023-06-09T19:02:09.585Z,18.50
2023-06-09T19:04:38.714Z,18.00
2023-06-09T19:07:07.051Z,19.00
2023-06-09T19:09:35.798Z,19.25
2023-06-09T19:12:04.350Z,18.25
2023-06-09T19:14:33.004Z,17.25
2023-06-09T19:17:01.230Z,19.67
2023-06-09T19:19:29.775Z,18.00
2023-06-09T19:21:58.115Z,18.25
2023-06-09T19:24:26.751Z,17.00
2023-06-09T19:26:55.195Z,16.25
2023-06-09T19:29:24.633Z,17.33
2023-06-09T19:31:53.147Z,17.50
2023-06-09T19:34:23.783Z,19.67
2023-06-09T19:36:52.706Z,16.00
2023-06-09T19:39:21.627Z,17.25
2023-06-09T19:41:50.680Z,16.75
2023-06-09T19:44:19.368Z,16.50
2023-06-09T19:46:47.727Z,16.00
2023-06-09T19:49:16.800Z,16.33
2023-06-09T19:51:45.210Z,15.75
2023-06-09T19:54:13.875Z,15.00
2023-06-09T19:56:49.159Z,16.00
2023-06-09T19:59:19.330Z,17.50
2023-06-09T20:01:47.967Z,16.50
2023-06-09T20:04:16.657Z,15.00
2023-06-09T20:06:44.936Z,14.50
2023-06-09T20:09:13.756Z,14.50
2023-06-09T20:11:42.193Z,14.25
2023-06-09T20:14:10.944Z,16.75
2023-06-09T20:16:39.825Z,16.00
2023-06-09T20:19:08.664Z,16.50
2023-06-09T20:21:37.574Z,16.75
2023-06-09T20:24:07.514Z,17.25
2023-06-09T20:26:39.356Z,16.75
2023-06-09T20:29:07.923Z,18.25
2023-06-09T20:31:36.153Z,17.50
2023-06-09T20:34:04.633Z,18.00
2023-06-09T20:36:39.301Z,17.75
2023-06-09T20:39:10.400Z,15.25
2023-06-09T20:41:38.791Z,15.75
2023-06-09T20:44:08.011Z,14.33
2023-06-09T20:46:36.895Z,14.00
2023-06-09T20:49:05.597Z,14.75
2023-06-09T20:51:33.753Z,14.25
2023-06-09T20:54:02.265Z,14.00
2023-06-09T20:56:31.176Z,13.25
2023-06-09T20:58:59.892Z,12.75
2023-06-09T21:01:30.598Z,12.67
2023-06-09T21:03:59.271Z,13.00
2023-06-09T21:06:31.516Z,13.67
2023-06-09T21:09:00.123Z,12.75
2023-06-09T21:11:28.428Z,15.50
2023-06-09T21:13:57.218Z,13.25
2023-06-09T21:16:25.940Z,14.25
2023-06-09T21:18:54.831Z,13.00
2023-06-09T21:21:23.149Z,17.00
2023-06-09T21:23:51.748Z,13.75
2023-06-09T21:26:20.191Z,15.00
2023-06-09T21:28:48.717Z,15.00
2023-06-09T21:31:17.125Z,15.00
2023-06-09T21:33:45.754Z,15.50
2023-06-09T21:36:14.029Z,15.25
2023-06-09T21:38:42.910Z,15.25
2023-06-09T21:41:11.200Z,13.75
2023-06-09T21:43:39.805Z,14.75
2023-06-09T21:46:08.085Z,15.00
2023-06-09T21:48:36.899Z,14.00
2023-06-09T21:51:05.179Z,13.50
2023-06-09T21:53:33.747Z,14.00
2023-06-09T21:56:01.987Z,14.25
2023-06-09T21:58:30.610Z,14.50
2023-06-09T22:00:58.954Z,16.00
2023-06-09T22:03:27.660Z,15.00
2023-06-09T22:05:55.737Z,15.00
2023-06-09T22:08:24.290Z,14.75
2023-06-09T22:10:52.515Z,13.50
2023-06-09T22:13:21.525Z,14.75
2023-06-09T22:15:49.751Z,13.75
2023-06-09T22:18:18.609Z,14.75
2023-06-09T22:20:48.442Z,14.50
2023-06-09T22:23:17.202Z,14.00
2023-06-09T22:25:45.423Z,14.50
2023-06-09T22:28:14.018Z,13.25
2023-06-09T22:30:42.514Z,13.75
2023-06-09T22:33:11.653Z,14.25
2023-06-09T22:35:39.927Z,13.75
2023-06-09T22:40:50.642Z,14.25
2023-06-09T22:43:20.189Z,15.00
2023-06-09T22:45:48.456Z,13.75
2023-06-09T22:48:19.288Z,14.00
2023-06-09T22:50:49.361Z,13.50
2023-06-09T22:53:18.298Z,13.50
2023-06-09T22:55:46.876Z,14.33
2023-06-09T22:58:15.847Z,14.25
2023-06-09T23:00:44.127Z,12.75
2023-06-09T23:03:12.796Z,13.75
2023-06-09T23:05:55.710Z,12.75
2023-06-09T23:08:25.334Z,13.75
2023-06-09T23:10:53.758Z,12.75
2023-06-09T23:13:22.472Z,12.50
2023-06-09T23:15:53.447Z,12.67
2023-06-09T23:18:23.196Z,12.75
2023-06-09T23:20:51.539Z,13.25
2023-06-09T23:23:23.288Z,12.25
2023-06-09T23:25:51.599Z,12.50
2023-06-09T23:28:20.250Z,12.75
2023-06-09T23:30:48.480Z,13.33
2023-06-09T23:33:19.156Z,12.50
2023-06-09T23:35:47.566Z,13.00
2023-06-09T23:38:16.163Z,12.50
2023-06-09T23:40:45.682Z,12.50
2023-06-09T23:43:14.318Z,13.00
2023-06-09T23:45:42.775Z,11.75
2023-06-09T23:48:11.633Z,12.25
2023-06-09T23:50:39.923Z,12.00
2023-06-09T23:53:18.941Z,11.67
2023-06-09T23:55:47.644Z,12.00
2023-06-09T23:58:18.355Z,12.00
